Carrolls, WA (98609)

3:30 PM PST on February 08, 2016 (GMT -0800)
Neer City Hilltop | | Change Station
CLOSE
Current Station
Personal Weather Station
Location: Rainier, OR
Elevation: 1020 ft
Nearby Weather Stations

Elev 1020 ft 46.03 °N, 122.92 °W | Updated 2 seconds ago

Clear
Clear
60.1 °F
Feels Like 60.1 °F
N
1.3
Wind Variable Wind from ESE
Gusts 2.5 mph

Today
High -- | Low -- °F
--% Chance of Precip.
Yesterday
High -- | Low -- °F
Precip. -- in
Pressure 30.33 in
Visibility 10.0 miles
Clouds Clear
Dew Point 14 °F
Humidity 16%
Rainfall 0.00 in
Snow Depth Not available.
7:25 AM 5:26 PM
New Moon, 0% visible
METAR KKLS 082315Z AUTO 32003KT 10SM CLR 17/07 A3033 RMK AO1
Pressure 30.33 in
Visibility 10.0 miles
Clouds Clear
Dew Point 14 °F
Humidity 16%
Rainfall 0.00 in
Snow Depth Not available.
7:25 AM 5:26 PM
New Moon, 0% visible
METAR KKLS 082315Z AUTO 32003KT 10SM CLR 17/07 A3033 RMK AO1

10-Day Weather Forecast

Almanac

Astronomy

Feb. 08, 2016 Rise Set
Actual Time
Civil Twilight
Nautical Twilight
Astronomical Twilight
Moon
Length of Visible Light
Length of Day
Tomorrow will be .
, % of the Moon is Illuminated

Today's Extremes

State Highs State Lows

Community

WunderPhotos

Upload Photos

1,891,525 photos uploaded!

WunderBlog® & News

Nearby

Air Quality

  Air Quality AQ Index Pollutant
Not available.

Snow Depth

Station Depth Elevation

Earthquake Activity

City Distance Mag. Time & Date
Minimum magnitude displayed is 2.5.

Coastal Water Temperatures

Place Temperature

Stations

Nearby Weather Stations

Station Location Temp. Windchill Dew Point Humidity Wind Precip. Elev Updated Type
                   

Watches & Warnings

There are currently no watches in effect.